Monday, August 29, 2016, 1:19 AM EDT

KOKV, Winchester Regional

Location: Winchester, VA, United States Lat: 39.15
Local Time: 1:19 AM EDT ( 5:19 GMT) Lon: -78.15
Time Zone: US/Eastern Elev: 728 ft

Show me the last for .
Show Decoded

2016-08-29 00:55 METAR KOKV 290455Z AUTO 00000KT 10SM SCT050 22/18 A3022 RMK AO2 =
2016-08-29 00:35 METAR KOKV 290435Z AUTO 33005KT 10SM SCT050 21/18 A3023 RMK AO2 =
2016-08-29 00:15 METAR KOKV 290415Z AUTO 00000KT 10SM CLR 20/18 A3022 RMK AO2 =
2016-08-28 23:55 METAR KOKV 290355Z AUTO 00000KT 10SM CLR 21/18 A3022 RMK AO2 =
2016-08-28 23:35 METAR KOKV 290335Z AUTO 00000KT 10SM CLR 21/18 A3022 RMK AO2 =
2016-08-28 23:15 METAR KOKV 290315Z AUTO 00000KT 10SM CLR 23/18 A3022 RMK AO2 =
2016-08-28 22:55 METAR KOKV 290255Z AUTO 03005KT 10SM CLR 21/18 A3022 RMK AO2 LTG DSNT NW =
2016-08-28 22:35 METAR KOKV 290235Z AUTO 00000KT 10SM CLR 22/19 A3021 RMK AO2 =
2016-08-28 22:15 METAR KOKV 290215Z AUTO 14003KT 10SM CLR 23/19 A3019 RMK AO2 =
2016-08-28 21:55 METAR KOKV 290155Z AUTO 00000KT 10SM CLR 23/19 A3020 RMK AO2 =
2016-08-28 21:35 METAR KOKV 290135Z AUTO 00000KT 10SM CLR 24/19 A3020 RMK AO2 =
2016-08-28 21:15 METAR KOKV 290115Z AUTO 15004KT 10SM CLR 23/19 A3018 RMK AO2 =
2016-08-28 20:55 METAR KOKV 290055Z AUTO 00000KT 10SM CLR 25/19 A3018 RMK AO2 =
2016-08-28 20:35 METAR KOKV 290035Z AUTO 00000KT 10SM CLR 25/19 A3016 RMK AO2 =
2016-08-28 20:15 METAR KOKV 290015Z AUTO 11003KT 10SM CLR 25/19 A3015 RMK AO2 =
2016-08-28 19:55 METAR KOKV 282355Z AUTO 00000KT 10SM CLR 26/19 A3016 RMK AO2 =
2016-08-28 19:35 METAR KOKV 282335Z AUTO 00000KT 10SM CLR 27/18 A3015 RMK AO2 =
2016-08-28 19:15 METAR KOKV 282315Z AUTO 15004KT 10SM CLR 28/18 A3015 RMK AO2 =
2016-08-28 18:55 METAR KOKV 282255Z AUTO 16006KT 10SM CLR 30/18 A3015 RMK AO2 =
2016-08-28 18:35 METAR KOKV 282235Z AUTO 15005KT 10SM CLR 30/18 A3015 RMK AO2 =
2016-08-28 18:15 METAR KOKV 282215Z AUTO 13004KT 10SM CLR 31/17 A3016 RMK AO2 =
2016-08-28 17:55 METAR KOKV 282155Z AUTO 13006KT 10SM CLR 31/17 A3016 RMK AO2 =
2016-08-28 17:35 METAR KOKV 282135Z AUTO 13006KT 10SM CLR 31/17 A3017 RMK AO2 =
2016-08-28 17:15 METAR KOKV 282115Z AUTO 18006KT 10SM CLR 32/17 A3017 RMK AO2 =
2016-08-28 16:55 METAR KOKV 282055Z AUTO 18006KT 10SM CLR 31/17 A3017 RMK AO2 =
2016-08-28 16:35 METAR KOKV 282035Z AUTO 14008KT 130V190 10SM CLR 32/17 A3018 RMK AO2 =
2016-08-28 16:15 METAR KOKV 282015Z AUTO 12006KT 10SM CLR 32/17 A3018 RMK AO2 =
2016-08-28 15:55 METAR KOKV 281955Z AUTO 12006KT 10SM CLR 31/17 A3019 RMK AO2 =
2016-08-28 15:35 METAR KOKV 281935Z AUTO 14008KT 10SM CLR 32/17 A3020 RMK AO2 =
2016-08-28 15:15 METAR KOKV 281915Z AUTO 12009KT 10SM CLR 32/18 A3020 RMK AO2 =
2016-08-28 14:55 METAR KOKV 281855Z AUTO 11008KT 10SM CLR 32/18 A3021 RMK AO2 =
2016-08-28 14:35 METAR KOKV 281835Z AUTO 14006KT 10SM CLR 32/18 A3022 RMK AO2 =
2016-08-28 14:15 METAR KOKV 281815Z AUTO 21004KT 10SM CLR 32/17 A3023 RMK AO2 =
2016-08-28 13:55 METAR KOKV 281755Z AUTO 17005KT 10SM CLR 31/16 A3023 RMK AO2 =
2016-08-28 13:35 METAR KOKV 281735Z AUTO 16006KT 10SM CLR 31/16 A3024 RMK AO2 =
2016-08-28 13:15 METAR KOKV 281715Z AUTO 18004KT 10SM CLR 31/18 A3024 RMK AO2 =
2016-08-28 12:55 METAR KOKV 281655Z AUTO 15007KT 10SM CLR 31/17 A3025 RMK AO2 =
2016-08-28 12:35 METAR KOKV 281635Z AUTO 17006KT 10SM CLR 30/17 A3025 RMK AO2 =
2016-08-28 12:15 METAR KOKV 281615Z AUTO 17006KT 10SM CLR 30/17 A3025 RMK AO2 =
2016-08-28 11:55 METAR KOKV 281555Z AUTO 14006KT 10SM CLR 30/18 A3025 RMK AO2 =
2016-08-28 11:35 METAR KOKV 281535Z AUTO 15005KT 10SM CLR 29/18 A3026 RMK AO2 =
2016-08-28 11:15 METAR KOKV 281515Z AUTO 00000KT 10SM CLR 29/18 A3026 RMK AO2 =
2016-08-28 10:55 METAR KOKV 281455Z AUTO 17005KT 10SM CLR 28/18 A3027 RMK AO2 =
2016-08-28 10:35 METAR KOKV 281435Z AUTO 00000KT 10SM CLR 27/19 A3027 RMK AO2 =
2016-08-28 10:15 METAR KOKV 281415Z AUTO 11003KT 10SM CLR 27/20 A3026 RMK AO2 =
2016-08-28 09:55 METAR KOKV 281355Z AUTO 00000KT 10SM CLR 26/20 A3027 RMK AO2 =
2016-08-28 09:35 METAR KOKV 281335Z AUTO 00000KT 10SM CLR 26/20 A3027 RMK AO2 =
2016-08-28 09:15 METAR KOKV 281315Z AUTO 00000KT 10SM CLR 25/20 A3026 RMK AO2 =
2016-08-28 08:55 METAR KOKV 281255Z AUTO 00000KT 10SM CLR 24/20 A3026 RMK AO2 =
2016-08-28 08:35 METAR KOKV 281235Z AUTO 00000KT 10SM CLR 23/20 A3025 RMK AO2 =
2016-08-28 08:15 METAR KOKV 281215Z AUTO 00000KT 10SM CLR 22/19 A3025 RMK AO2 =
2016-08-28 07:55 METAR KOKV 281155Z AUTO 00000KT 10SM CLR 21/19 A3025 RMK AO2 =
2016-08-28 07:35 METAR KOKV 281135Z AUTO 00000KT 10SM CLR 20/18 A3025 RMK AO2 =
2016-08-28 07:15 METAR KOKV 281115Z AUTO 00000KT 10SM CLR 18/18 A3025 RMK AO2 =
2016-08-28 06:55 METAR KOKV 281055Z AUTO 00000KT 10SM CLR 18/17 A3025 RMK AO2 =
2016-08-28 06:35 METAR KOKV 281035Z AUTO 00000KT 10SM CLR 18/17 A3024 RMK AO2 =
2016-08-28 06:15 METAR KOKV 281015Z AUTO 00000KT 10SM CLR 18/17 A3023 RMK AO2 =
2016-08-28 05:55 METAR KOKV 280955Z AUTO 00000KT 10SM CLR 18/18 A3023 RMK AO2 =
2016-08-28 05:35 METAR KOKV 280935Z AUTO 00000KT 10SM CLR 18/17 A3023 RMK AO2 =
2016-08-28 05:15 METAR KOKV 280915Z AUTO 00000KT 10SM CLR 19/18 A3022 RMK AO2 =
2016-08-28 04:55 METAR KOKV 280855Z AUTO 00000KT 10SM CLR 19/18 A3022 RMK AO2 =
2016-08-28 04:35 METAR KOKV 280835Z AUTO 00000KT 10SM CLR 18/17 A3021 RMK AO2 =
2016-08-28 04:15 METAR KOKV 280815Z AUTO 00000KT 10SM CLR 19/18 A3021 RMK AO2 =
2016-08-28 03:55 METAR KOKV 280755Z AUTO 00000KT 10SM CLR 19/18 A3021 RMK AO2 =
2016-08-28 03:35 METAR KOKV 280735Z AUTO 00000KT 10SM CLR 19/17 A3021 RMK AO2 =
2016-08-28 03:15 METAR KOKV 280715Z AUTO 00000KT 10SM CLR 19/18 A3021 RMK AO2 =
2016-08-28 02:55 METAR KOKV 280655Z AUTO 00000KT 10SM CLR 19/17 A3020 RMK AO2 =
2016-08-28 02:35 METAR KOKV 280635Z AUTO 00000KT 10SM CLR 20/18 A3020 RMK AO2 =
2016-08-28 02:15 METAR KOKV 280615Z AUTO 00000KT 10SM CLR 20/17 A3019 RMK AO2 =
2016-08-28 01:55 METAR KOKV 280555Z AUTO 00000KT 10SM CLR 20/18 A3020 RMK AO2 =
2016-08-28 01:35 METAR KOKV 280535Z AUTO 00000KT 10SM CLR 20/18 A3020 RMK AO2 =

Support USWX by starting your Amazon purchase here.